Time;durP1;ratioP1;P1;durP2;ratioP2;P2;SDS_P1;SDS_P2;PMS_P1;PMS_P2;Temp;Humidity;BMP_temperature;BMP_pressure;BME280_temperature;BME280_humidity;BME280_pressure;Samples;Min_cycle;Max_cycle;Signal;HPM_P1;HPM_P2
2022/04/05 00:02:36;;;;;;;32.35;12.95;;;;;;;8.98;100.00;100421.06;5054524;28;20119;-78
2022/04/05 00:05:01;;;;;;;33.35;13.85;;;;;;;8.90;100.00;100417.81;5054048;28;20033;-78
2022/04/05 00:07:26;;;;;;;25.85;13.20;;;;;;;8.88;100.00;100425.19;5053166;28;20033;-77
2022/04/05 00:13:13;;;;;;;26.38;11.43;;;;;;;8.87;100.00;100423.56;5053414;28;20047;-76
2022/04/05 00:15:38;;;;;;;30.63;12.57;;;;;;;8.91;100.00;100428.25;5053900;28;20382;-76
2022/04/05 00:18:04;;;;;;;25.60;11.63;;;;;;;8.94;100.00;100433.16;5052897;28;20037;-77
2022/04/05 00:20:29;;;;;;;30.02;12.93;;;;;;;8.90;100.00;100447.94;5053915;28;20029;-77
2022/04/05 00:22:55;;;;;;;27.92;13.55;;;;;;;8.93;100.00;100433.38;5053674;28;20481;-76
2022/04/05 00:25:21;;;;;;;31.88;13.50;;;;;;;8.89;100.00;100440.97;5052817;28;20033;-76
2022/04/05 00:27:47;;;;;;;35.90;13.80;;;;;;;8.80;100.00;100422.78;5053612;28;20473;-78
2022/04/05 00:30:13;;;;;;;25.67;12.35;;;;;;;8.83;100.00;100427.69;5052892;28;20080;-76
2022/04/05 00:32:38;;;;;;;31.85;14.35;;;;;;;8.80;100.00;100434.28;5035630;28;20156;-77
2022/04/05 00:35:05;;;;;;;37.20;13.48;;;;;;;8.84;100.00;100440.81;5053491;28;20040;-77
2022/04/05 00:37:31;;;;;;;32.53;12.45;;;;;;;8.82;100.00;100437.53;5034831;28;20520;-79
2022/04/05 00:39:56;;;;;;;32.67;13.00;;;;;;;8.78;100.00;100431.00;5053364;28;20029;-79
2022/04/05 00:42:22;;;;;;;24.88;13.02;;;;;;;8.85;100.00;100444.28;5052800;28;20037;-77
2022/04/05 00:44:47;;;;;;;29.55;13.43;;;;;;;8.80;100.00;100444.94;5053118;28;20045;-75
2022/04/05 00:47:14;;;;;;;20.98;10.55;;;;;;;8.87;100.00;100440.38;5035298;28;20119;-77
2022/04/05 00:49:41;;;;;;;26.60;11.73;;;;;;;8.78;100.00;100439.00;5052411;28;20398;-76
2022/04/05 00:52:06;;;;;;;31.80;12.35;;;;;;;8.75;100.00;100436.75;5053089;28;20033;-77
2022/04/05 00:54:35;;;;;;;28.55;13.27;;;;;;;8.76;100.00;100430.41;5052791;28;20063;-78
2022/04/05 00:57:01;;;;;;;26.33;12.80;;;;;;;8.73;100.00;100441.47;5052935;28;20063;-80
2022/04/05 00:59:30;;;;;;;21.90;11.60;;;;;;;8.78;100.00;100439.00;5035255;28;20060;-78
2022/04/05 01:01:56;;;;;;;27.67;12.27;;;;;;;8.71;100.00;100437.41;5052440;28;20481;-79
2022/04/05 01:04:22;;;;;;;29.60;12.15;;;;;;;8.68;100.00;100435.97;5053213;28;20117;-79
2022/04/05 01:06:48;;;;;;;21.30;10.68;;;;;;;8.70;100.00;100431.25;5035248;28;20028;-78
2022/04/05 01:12:35;;;;;;;33.80;15.30;;;;;;;8.73;100.00;100446.00;5053196;28;20567;-78
2022/04/05 01:15:00;;;;;;;27.65;13.20;;;;;;;8.71;100.00;100440.88;5052109;28;20068;-79
2022/04/05 01:17:26;;;;;;;38.28;15.02;;;;;;;8.72;100.00;100450.50;5034906;28;20385;-80
2022/04/05 01:19:52;;;;;;;29.70;13.35;;;;;;;8.71;100.00;100437.41;5052553;28;20023;-79
2022/04/05 01:25:42;;;;;;;35.17;14.07;;;;;;;8.71;100.00;100456.06;5053046;28;20060;-79
2022/04/05 01:28:07;;;;;;;33.33;14.70;;;;;;;8.69;100.00;100454.41;5052133;28;20033;-78
2022/04/05 01:30:32;;;;;;;34.65;15.90;;;;;;;8.63;100.00;100444.56;5052672;28;20040;-78
2022/04/05 01:32:59;;;;;;;30.52;14.57;;;;;;;8.56;100.00;100441.13;5031916;28;20079;-78
2022/04/05 01:35:25;;;;;;;29.10;12.75;;;;;;;8.64;100.00;100448.88;5052533;28;20390;-78
2022/04/05 01:41:11;;;;;;;26.25;12.35;;;;;;;8.67;100.00;100460.97;5053174;28;20556;-79
2022/04/05 01:43:37;;;;;;;30.67;13.35;;;;;;;8.62;100.00;100450.13;5034493;28;20029;-79
2022/04/05 01:46:02;;;;;;;34.00;14.07;;;;;;;8.60;100.00;100447.66;5051822;28;20121;-78
2022/04/05 01:51:49;;;;;;;32.35;11.80;;;;;;;8.65;100.00;100457.69;5052532;28;20167;-77
2022/04/05 01:54:16;;;;;;;29.20;13.52;;;;;;;8.58;100.00;100452.38;5052455;28;20063;-78
2022/04/05 02:00:05;;;;;;;32.28;13.27;;;;;;;8.59;100.00;100453.22;5052552;28;20094;-78
2022/04/05 02:02:31;;;;;;;29.83;14.25;;;;;;;8.57;100.00;100452.59;5052238;28;20036;-78
2022/04/05 02:04:56;;;;;;;44.20;16.20;;;;;;;8.52;100.00;100452.41;5051446;28;20033;-78
2022/04/05 02:10:42;;;;;;;30.30;13.70;;;;;;;8.56;100.00;100442.97;5052785;28;20369;-79
2022/04/05 02:13:08;;;;;;;23.45;12.38;;;;;;;8.62;100.00;100460.78;5052132;28;20028;-80
2022/04/05 02:18:55;;;;;;;32.47;14.98;;;;;;;8.56;100.00;100461.63;5052302;28;20048;-77
2022/04/05 02:21:21;;;;;;;33.08;14.48;;;;;;;8.57;100.00;100465.94;5052063;28;20036;-76
2022/04/05 02:23:46;;;;;;;28.50;13.10;;;;;;;8.54;100.00;100458.34;5051069;28;20041;-76
2022/04/05 02:29:34;;;;;;;35.50;15.52;;;;;;;8.54;100.00;100463.69;5052036;28;20044;-76
2022/04/05 02:32:00;;;;;;;32.05;13.82;;;;;;;8.51;100.00;100453.44;5052047;28;20039;-75
2022/04/05 02:34:25;;;;;;;36.00;14.82;;;;;;;8.49;100.00;100461.66;5051336;28;20025;-79
2022/04/05 02:36:50;;;;;;;30.15;14.98;;;;;;;8.50;100.00;100457.97;5037799;28;20047;-78
2022/04/05 02:42:39;;;;;;;33.65;14.98;;;;;;;8.46;100.00;100453.25;5058725;28;20051;-78
2022/04/05 02:48:26;;;;;;;26.83;13.73;;;;;;;8.43;100.00;100451.84;5058538;28;20408;-77
2022/04/05 02:50:52;;;;;;;31.95;14.93;;;;;;;8.45;100.00;100456.97;5057950;28;20041;-77
2022/04/05 02:56:39;;;;;;;26.90;13.13;;;;;;;8.46;100.00;100454.09;5058204;28;20040;-78
2022/04/05 02:59:04;;;;;;;32.38;12.77;;;;;;;8.46;100.00;100450.59;5039388;28;20044;-78
2022/04/05 03:01:30;;;;;;;33.17;15.80;;;;;;;8.40;100.00;100444.28;5058090;28;20029;-77
2022/04/05 03:03:55;;;;;;;28.30;13.00;;;;;;;8.42;100.00;100444.06;5040213;28;20056;-76
2022/04/05 03:06:20;;;;;;;25.98;11.93;;;;;;;8.50;100.00;100449.16;5057223;28;20061;-76
2022/04/05 03:08:46;;;;;;;30.50;12.73;;;;;;;8.41;100.00;100445.91;5058097;28;20028;-75
2022/04/05 03:11:11;;;;;;;25.67;12.30;;;;;;;8.41;100.00;100445.91;5039987;28;20283;-78
2022/04/05 03:13:37;;;;;;;26.85;12.90;;;;;;;8.42;100.00;100452.88;5039263;28;20607;-77
2022/04/05 03:16:02;;;;;;;34.08;14.98;;;;;;;8.41;100.00;100453.09;5039744;28;20029;-77
2022/04/05 03:21:49;;;;;;;25.27;12.93;;;;;;;8.41;100.00;100451.25;5058119;28;20044;-77
2022/04/05 03:27:41;;;;;;;19.02;10.77;;;;;;;8.43;100.00;100456.34;5057888;28;20270;-75
2022/04/05 03:33:28;;;;;;;25.95;12.25;;;;;;;8.43;100.00;100454.50;5057630;28;20406;-76
2022/04/05 03:35:55;;;;;;;25.40;12.57;;;;;;;8.47;100.00;100457.56;5057099;28;20025;-78
2022/04/05 03:38:21;;;;;;;24.25;12.23;;;;;;;8.47;100.00;100454.91;5057206;28;20110;-78
2022/04/05 03:44:08;;;;;;;21.95;11.38;;;;;;;8.43;100.00;100440.38;5057720;28;20496;-77
2022/04/05 03:53:36;;;;;;;25.27;11.73;;;;;;;8.56;100.00;100448.31;5054310;28;20071;-78
2022/04/05 03:56:02;;;;;;;25.05;12.50;;;;;;;8.49;100.00;100453.66;5053057;28;20132;-78
2022/04/05 04:01:49;;;;;;;28.88;11.38;;;;;;;8.46;100.00;100442.59;5054108;28;20067;-76
2022/04/05 04:04:14;;;;;;;29.30;12.20;;;;;;;8.48;100.00;100437.88;5036085;28;20029;-76
2022/04/05 04:06:42;;;;;;;23.95;12.13;;;;;;;8.50;100.00;100444.63;5053835;28;20060;-76
2022/04/05 04:09:07;;;;;;;26.02;11.52;;;;;;;8.50;100.00;100443.81;5046386;28;20040;-77
2022/04/05 04:11:32;;;;;;;19.02;10.30;;;;;;;8.43;100.00;100432.38;5053653;28;20415;-76
2022/04/05 04:13:58;;;;;;;24.45;10.35;;;;;;;8.44;100.00;100437.50;5052810;28;20082;-75
2022/04/05 04:16:24;;;;;;;23.75;10.98;;;;;;;8.47;100.00;100447.72;5053649;28;20032;-76
2022/04/05 04:18:49;;;;;;;21.52;12.05;;;;;;;8.47;100.00;100439.72;5053924;28;20441;-76
2022/04/05 04:21:14;;;;;;;28.43;10.90;;;;;;;8.45;100.00;100432.97;5052862;28;20090;-75
2022/04/05 04:27:01;;;;;;;17.75;9.10;;;;;;;8.38;100.00;100441.81;5053536;28;20055;-75
2022/04/05 04:29:27;;;;;;;21.27;10.07;;;;;;;8.47;100.00;100447.72;5053355;28;20024;-75
2022/04/05 04:31:52;;;;;;;20.08;10.77;;;;;;;8.44;100.00;100437.50;5034571;28;20496;-77
2022/04/05 04:34:17;;;;;;;20.73;10.68;;;;;;;8.41;100.00;100437.91;5053598;28;20120;-76
2022/04/05 04:36:43;;;;;;;28.90;12.25;;;;;;;8.45;100.00;100446.31;5035360;28;20370;-76
2022/04/05 04:39:09;;;;;;;22.67;11.10;;;;;;;8.41;100.00;100440.56;5052398;28;20068;-76
2022/04/05 04:41:35;;;;;;;24.50;11.77;;;;;;;8.45;100.00;100451.63;5035224;28;20032;-76
2022/04/05 04:47:21;;;;;;;21.35;11.30;;;;;;;8.44;100.00;100437.50;5053601;28;20085;-77
2022/04/05 04:53:08;;;;;;;19.85;9.95;;;;;;;8.41;100.00;100455.75;5053346;28;20052;-74
2022/04/05 04:55:33;;;;;;;25.63;12.63;;;;;;;8.44;100.00;100448.16;5035237;28;20029;-75
2022/04/05 04:57:59;;;;;;;20.48;10.50;;;;;;;8.49;100.00;100452.84;5052380;28;20132;-74
2022/04/05 05:00:24;;;;;;;26.00;11.70;;;;;;;8.46;100.00;100448.75;5052647;28;20385;-76
2022/04/05 05:02:51;;;;;;;19.45;9.98;;;;;;;8.53;100.00;100454.06;5034401;28;20033;-74
2022/04/05 05:05:17;;;;;;;26.50;13.05;;;;;;;8.48;100.00;100461.88;5034950;28;20025;-75
2022/04/05 05:11:04;;;;;;;18.20;10.90;;;;;;;8.51;100.00;100461.44;5053142;28;20052;-75
2022/04/05 05:16:51;;;;;;;21.67;11.48;;;;;;;8.43;100.00;100446.50;5053010;28;20048;-74
2022/04/05 05:19:16;;;;;;;23.23;11.82;;;;;;;8.48;100.00;100459.19;5052573;28;20025;-75
2022/04/05 05:21:41;;;;;;;21.37;10.30;;;;;;;8.52;100.00;100463.91;5051845;28;20076;-77
2022/04/05 05:24:06;;;;;;;18.10;10.63;;;;;;;8.43;100.00;100461.69;5052754;28;20577;-77
2022/04/05 05:29:53;;;;;;;21.33;9.82;;;;;;;8.53;100.00;100470.03;5052965;28;20133;-77
2022/04/05 05:35:41;;;;;;;21.85;11.75;;;;;;;8.51;100.00;100467.59;5052839;28;20758;-76
2022/04/05 05:41:30;;;;;;;19.92;10.98;;;;;;;8.42;100.00;100452.88;5052405;28;20048;-77
2022/04/05 05:47:17;;;;;;;22.38;12.13;;;;;;;8.51;100.00;100480.91;5052499;28;20047;-77
2022/04/05 05:53:04;;;;;;;23.92;11.43;;;;;;;8.35;100.00;100452.88;5051995;28;20067;-76
2022/04/05 05:58:52;;;;;;;21.48;10.73;;;;;;;8.45;100.00;100478.28;5052273;28;20118;-77
2022/04/05 06:04:39;;;;;;;29.50;12.95;;;;;;;8.36;100.00;100472.34;5052355;28;20052;-79
2022/04/05 06:10:26;;;;;;;28.17;12.65;;;;;;;8.18;100.00;100440.19;5051364;28;20416;-78
2022/04/05 06:16:16;;;;;;;26.88;13.07;;;;;;;8.33;100.00;100462.91;5052061;28;20181;-80
2022/04/05 06:22:06;;;;;;;20.52;10.20;;;;;;;8.34;100.00;100466.41;5051943;28;20039;-80
2022/04/05 06:27:58;;;;;;;24.48;11.38;;;;;;;8.47;100.00;100500.19;5052114;28;20048;-78
2022/04/05 06:30:29;;;;;;;29.90;13.13;;;;;;;8.49;100.00;100508.81;5033503;28;20081;-78
2022/04/05 06:36:53;;;;;;;21.55;11.30;;;;;;;8.57;100.00;100513.91;5051493;28;20055;-77
2022/04/05 06:39:21;;;;;;;25.75;11.15;;;;;;;8.33;100.00;100481.56;5032972;28;20049;-78
2022/04/05 06:41:47;;;;;;;25.42;12.13;;;;;;;8.31;100.00;100464.94;5051556;28;20108;-76
2022/04/05 06:44:12;;;;;;;25.63;12.45;;;;;;;8.34;100.00;100472.53;5033617;28;20112;-76
2022/04/05 06:46:44;;;;;;;24.42;12.35;;;;;;;8.48;100.00;100494.66;5033016;28;20036;-79
2022/04/05 06:52:38;;;;;;;19.27;10.77;;;;;;;8.36;100.00;100464.34;5051238;28;20508;-76
2022/04/05 06:55:08;;;;;;;18.75;10.13;;;;;;;8.26;100.00;100447.94;5033063;28;20035;-78
2022/04/05 06:57:34;;;;;;;22.77;9.85;;;;;;;8.55;100.00;100510.63;5032900;28;20075;-77
2022/04/05 07:00:04;;;;;;;19.30;10.00;;;;;;;8.50;100.00;100489.94;5032990;28;20090;-79
2022/04/05 07:05:51;;;;;;;21.38;10.80;;;;;;;8.72;100.00;100527.81;5051357;28;20044;-79
2022/04/05 07:11:38;;;;;;;21.33;10.93;;;;;;;8.57;100.00;100520.03;5051184;28;20091;-79
2022/04/05 07:17:25;;;;;;;24.45;9.85;;;;;;;8.60;100.00;100527.63;5051354;28;20747;-77
2022/04/05 07:19:52;;;;;;;23.77;10.55;;;;;;;8.61;100.00;100536.44;5032791;28;20029;-78
2022/04/05 07:29:39;;;;;;;20.85;9.05;;;;;;;8.64;100.00;100528.00;5054688;28;20040;-77
2022/04/05 07:35:27;;;;;;;19.73;9.00;;;;;;;8.61;100.00;100520.44;5054556;28;20130;-77
2022/04/05 07:37:53;;;;;;;19.70;9.45;;;;;;;8.67;100.00;100520.44;5053323;28;20041;-77
2022/04/05 07:43:40;;;;;;;20.67;9.82;;;;;;;8.71;100.00;100525.34;5054518;28;20382;-82
2022/04/05 07:46:06;;;;;;;14.73;8.27;;;;;;;8.67;100.00;100519.59;5054112;28;20021;-84
2022/04/05 07:48:31;;;;;;;21.17;8.85;;;;;;;8.69;100.00;100522.91;5036198;28;20025;-79
2022/04/05 07:54:18;;;;;;;18.58;8.85;;;;;;;8.69;100.00;100521.06;5054042;28;20040;-79
2022/04/05 07:56:44;;;;;;;16.08;8.00;;;;;;;8.74;100.00;100528.41;5052891;28;20057;-78
2022/04/05 07:59:09;;;;;;;15.57;8.23;;;;;;;8.74;100.00;100536.41;5053986;28;20108;-78
2022/04/05 08:01:35;;;;;;;17.00;9.07;;;;;;;8.78;100.00;100526.97;5035246;28;20048;-80
2022/04/05 08:07:22;;;;;;;14.73;8.20;;;;;;;8.88;100.00;100530.00;5053838;28;20107;-79
2022/04/05 08:09:47;;;;;;;14.88;8.05;;;;;;;8.97;100.00;100525.28;5035718;28;20032;-80
2022/04/05 08:12:12;;;;;;;14.38;7.38;;;;;;;8.90;100.00;100525.28;5035506;28;20025;-78
2022/04/05 08:14:37;;;;;;;16.88;7.47;;;;;;;8.87;100.00;100525.69;5035123;28;20037;-79
2022/04/05 08:20:25;;;;;;;14.43;8.27;;;;;;;8.87;100.00;100530.22;5053451;28;20852;-78
2022/04/05 08:22:50;;;;;;;18.00;7.95;;;;;;;8.98;100.00;100534.91;5053435;28;20112;-78
2022/04/05 08:28:37;;;;;;;13.30;6.15;;;;;;;8.95;100.00;100528.13;5053632;28;20048;-78
2022/04/05 08:31:02;;;;;;;14.60;7.68;;;;;;;8.94;100.00;100539.00;5034659;28;20512;-78
2022/04/05 08:33:28;;;;;;;20.98;8.25;;;;;;;9.08;100.00;100537.13;5034835;28;20029;-79
2022/04/05 08:35:55;;;;;;;14.20;7.85;;;;;;;9.10;100.00;100530.53;5052145;28;20195;-78
2022/04/05 08:38:21;;;;;;;10.25;6.25;;;;;;;9.29;100.00;100550.16;5035288;28;20033;-77
2022/04/05 08:40:46;;;;;;;12.57;7.20;;;;;;;9.35;100.00;100538.63;5053142;28;20427;-79
2022/04/05 08:43:11;;;;;;;12.68;7.00;;;;;;;9.51;100.00;100548.78;5052348;28;20041;-78
2022/04/05 08:45:40;;;;;;;14.07;7.32;;;;;;;9.57;100.00;100536.47;5035175;28;20033;-79
2022/04/05 08:48:10;;;;;;;12.38;6.82;;;;;;;9.76;100.00;100550.69;5052351;28;20052;-79
2022/04/05 08:50:35;;;;;;;11.00;7.03;;;;;;;9.79;100.00;100543.06;5052939;28;20131;-81
2022/04/05 08:53:01;;;;;;;13.95;7.63;;;;;;;9.72;100.00;100546.81;5034499;28;20041;-81
2022/04/05 08:55:28;;;;;;;14.10;6.50;;;;;;;9.81;100.00;100537.50;5052684;28;20410;-78
2022/04/05 08:57:56;;;;;;;9.73;6.40;;;;;;;9.80;100.00;100551.91;5053173;28;20515;-77
2022/04/05 09:00:23;;;;;;;12.95;7.53;;;;;;;9.75;100.00;100547.22;5052160;28;20378;-77
2022/04/05 09:06:39;;;;;;;10.98;6.90;;;;;;;10.10;100.00;100558.25;5053135;28;20040;-80
2022/04/05 09:09:18;;;;;;;11.18;6.00;;;;;;;10.07;100.00;100556.00;5031548;28;20068;-77
2022/04/05 09:11:56;;;;;;;14.60;6.97;;;;;;;10.08;100.00;100559.50;5051864;28;20099;-79
2022/04/05 09:14:27;;;;;;;11.48;7.10;;;;;;;10.07;100.00;100563.22;5034847;28;20535;-77
2022/04/05 09:17:09;;;;;;;9.68;6.40;;;;;;;9.98;100.00;100559.19;5051765;28;20120;-78
2022/04/05 09:19:45;;;;;;;11.73;6.68;;;;;;;9.94;100.00;100554.28;5034575;28;20021;-77
2022/04/05 09:22:11;;;;;;;12.57;6.63;;;;;;;10.05;100.00;100565.28;5033813;28;20501;-77
2022/04/05 09:24:39;;;;;;;9.85;6.75;;;;;;;10.05;100.00;100559.94;5034411;28;20067;-78
2022/04/05 09:27:05;;;;;;;12.40;6.43;;;;;;;10.06;100.00;100567.72;5034868;28;20395;-77
2022/04/05 09:29:40;;;;;;;10.82;6.28;;;;;;;10.24;100.00;100572.38;5051689;28;20035;-77
2022/04/05 09:32:06;;;;;;;9.80;6.30;;;;;;;10.35;100.00;100576.16;5052403;28;20120;-79
2022/04/05 09:34:32;;;;;;;8.93;5.72;;;;;;;10.39;100.00;100566.66;5034047;28;20133;-77
2022/04/05 09:37:08;;;;;;;9.90;5.85;;;;;;;10.30;100.00;100560.78;5034479;28;20407;-77
2022/04/05 09:39:33;;;;;;;11.63;6.80;;;;;;;10.29;100.00;100567.16;5033744;28;20067;-79
2022/04/05 09:42:05;;;;;;;10.32;6.13;;;;;;;10.17;100.00;100572.38;5052457;28;20458;-79
2022/04/05 09:44:33;;;;;;;11.82;6.50;;;;;;;10.07;100.00;100581.91;5052283;28;20025;-77
2022/04/05 09:47:07;;;;;;;13.55;7.28;;;;;;;10.00;100.00;100573.94;5050174;28;20155;-77
2022/04/05 09:49:35;;;;;;;11.60;7.05;;;;;;;10.02;100.00;100571.88;5034195;28;21120;-78
2022/04/05 09:52:02;;;;;;;11.00;6.80;;;;;;;10.08;100.00;100586.22;5051065;28;20041;-77
2022/04/05 09:54:30;;;;;;;11.23;6.97;;;;;;;10.14;100.00;100575.50;5052082;28;20404;-77
2022/04/05 09:57:01;;;;;;;11.65;7.03;;;;;;;10.18;100.00;100581.22;5051230;28;20471;-77
2022/04/05 09:59:41;;;;;;;12.70;6.85;;;;;;;10.19;100.00;100589.03;5051866;28;20033;-77
2022/04/05 10:02:10;;;;;;;10.23;6.90;;;;;;;10.22;100.00;100579.78;5052017;28;20029;-78
2022/04/05 10:04:36;;;;;;;13.10;6.63;;;;;;;10.18;100.00;100575.88;5033546;28;20394;-77
2022/04/05 10:07:02;;;;;;;10.40;6.15;;;;;;;10.29;100.00;100575.19;5033971;28;20035;-77
2022/04/05 10:09:28;;;;;;;10.43;5.97;;;;;;;10.27;100.00;100582.59;5033326;28;20041;-76
2022/04/05 10:11:56;;;;;;;10.15;6.18;;;;;;;10.37;100.00;100582.09;5051760;28;20032;-78
2022/04/05 10:14:21;;;;;;;13.95;6.72;;;;;;;10.54;100.00;100584.00;5051154;28;20489;-77
2022/04/05 10:16:49;;;;;;;9.57;6.63;;;;;;;10.64;100.00;100577.34;5051577;28;20033;-78
2022/04/05 10:19:15;;;;;;;37.58;26.63;;;;;;;10.73;100.00;100579.53;5051691;28;20906;-78
2022/04/05 10:21:43;;;;;;;14.25;9.88;;;;;;;10.85;100.00;100582.28;5033298;28;20082;-78
2022/04/05 10:24:11;;;;;;;21.08;19.05;;;;;;;10.89;100.00;100579.97;5051523;28;20496;-77
2022/04/05 10:26:46;;;;;;;13.23;10.95;;;;;;;10.95;100.00;100576.41;5032441;28;20045;-78
2022/04/05 10:32:58;;;;;;;9.07;6.75;;;;;;;10.98;100.00;100586.66;5051766;28;20060;-77
2022/04/05 10:35:25;;;;;;;12.98;6.15;;;;;;;10.96;100.00;100578.03;5051519;28;20017;-79
2022/04/05 10:37:53;;;;;;;11.85;6.60;;;;;;;10.97;100.00;100579.66;5050558;28;20052;-78
2022/04/05 10:40:20;;;;;;;9.70;6.93;;;;;;;11.00;100.00;100574.72;5051576;28;20437;-80
2022/04/05 10:42:46;;;;;;;9.95;6.28;;;;;;;11.04;100.00;100580.44;5051523;28;20245;-77
2022/04/05 10:45:20;;;;;;;11.38;6.95;;;;;;;10.92;100.00;100579.53;5050712;28;20041;-78
2022/04/05 10:47:58;;;;;;;8.20;5.63;;;;;;;11.11;100.00;100579.31;5051289;28;20047;-78
2022/04/05 10:50:24;;;;;;;10.63;5.90;;;;;;;11.24;100.00;100572.13;5050421;28;20045;-79
2022/04/05 10:53:11;;;;;;;9.05;5.65;;;;;;;11.27;100.00;100577.03;5033443;28;20071;-78
2022/04/05 10:56:04;;;;;;;9.93;5.72;;;;;;;11.38;100.00;100577.13;5032791;28;20037;-78
2022/04/05 10:58:33;;;;;;;8.48;5.82;;;;;;;11.37;100.00;100575.47;5036155;28;20151;-78
2022/04/05 11:01:20;;;;;;;8.65;5.55;;;;;;;11.44;100.00;100570.84;5053906;28;20053;-78
2022/04/05 11:04:18;;;;;;;8.98;4.88;;;;;;;11.42;100.00;100577.47;5054748;28;20547;-78
2022/04/05 11:07:02;;;;;;;6.85;5.15;;;;;;;11.53;100.00;100578.56;5036307;28;20033;-79
2022/04/05 11:09:40;;;;;;;7.88;5.18;;;;;;;11.57;100.00;100563.72;5054741;28;20476;-82
2022/04/05 11:12:11;;;;;;;7.05;5.40;;;;;;;11.63;100.00;100568.16;5037120;28;20059;-79
2022/04/05 11:14:42;;;;;;;6.57;4.88;;;;;;;11.88;100.00;100579.56;5054634;28;20530;-79
2022/04/05 11:17:10;;;;;;;6.65;4.70;;;;;;;11.87;100.00;100575.25;5054408;28;20036;-79
2022/04/05 11:19:38;;;;;;;9.73;4.88;;;;;;;11.82;100.00;100587.66;5053681;28;20053;-79
2022/04/05 11:22:25;;;;;;;7.38;4.80;;;;;;;11.71;100.00;100582.03;5054638;28;20533;-79
2022/04/05 11:25:06;;;;;;;6.40;4.35;;;;;;;11.60;100.00;100571.28;5053541;28;20037;-79
2022/04/05 11:31:02;;;;;;;10.82;7.53;;;;;;;11.57;100.00;100582.44;5055003;28;20044;-78
2022/04/05 11:33:31;;;;;;;7.47;5.63;;;;;;;11.41;100.00;100581.19;5036614;28;20033;-80
2022/04/05 11:39:18;;;;;;;7.50;5.10;;;;;;;11.88;100.00;100566.16;5054409;28;20114;-80
2022/04/05 11:41:43;;;;;;;8.32;4.22;;;;;;;12.15;100.00;100571.13;5053441;28;20053;-81
2022/04/05 11:47:30;;;;;;;7.10;4.00;;;;;;;12.31;100.00;100567.72;5054869;28;20171;-83
2022/04/05 12:00:08;;;;;;;6.32;3.90;;;;;;;12.53;100.00;100567.97;5053519;28;20044;-80
2022/04/05 12:02:34;;;;;;;6.75;4.70;;;;;;;12.53;100.00;100565.28;5054182;28;20051;-80
2022/04/05 12:04:59;;;;;;;4.88;4.25;;;;;;;12.45;100.00;100555.75;5053205;28;20485;-80
2022/04/05 12:10:46;;;;;;;8.75;4.55;;;;;;;12.37;100.00;100558.75;5053877;28;20040;-79
2022/04/05 12:16:49;;;;;;;5.80;4.97;;;;;;;12.48;100.00;100567.88;5054451;28;20132;-80
2022/04/05 12:19:23;;;;;;;7.07;4.38;;;;;;;12.43;100.00;100552.44;5053567;28;20025;-82
2022/04/05 12:25:10;;;;;;;7.22;4.70;;;;;;;12.14;100.00;100564.91;5054020;28;20118;-80
2022/04/05 12:27:35;;;;;;;8.23;4.80;;;;;;;12.06;100.00;100558.03;5035167;28;20412;-81
2022/04/05 12:30:02;;;;;;;8.52;4.70;;;;;;;11.92;100.00;100558.47;5053521;28;20676;-82
2022/04/05 12:32:37;;;;;;;8.52;4.68;;;;;;;11.75;100.00;100563.63;5034982;28;20506;-81
2022/04/05 12:35:04;;;;;;;6.88;4.97;;;;;;;11.54;100.00;100570.31;5053400;28;20039;-81
2022/04/05 12:37:30;;;;;;;9.18;5.70;;;;;;;11.37;100.00;100563.97;5053390;28;20127;-80
2022/04/05 12:39:55;;;;;;;8.82;5.68;;;;;;;11.24;100.00;100575.63;5052684;28;20530;-81
2022/04/05 12:42:20;;;;;;;9.45;5.60;;;;;;;11.14;100.00;100560.13;5035337;28;20031;-82
2022/04/05 12:44:55;;;;;;;9.45;5.75;;;;;;;11.15;100.00;100577.81;5034792;28;20044;-80
2022/04/05 12:50:44;;;;;;;12.90;7.45;;;;;;;11.15;100.00;100575.13;5053388;28;20516;-81
2022/04/05 12:53:09;;;;;;;16.05;10.88;;;;;;;11.28;100.00;100579.53;5053048;28;20031;-81
2022/04/05 12:55:35;;;;;;;10.15;6.18;;;;;;;11.26;100.00;100576.22;5034610;28;20385;-80
2022/04/05 12:58:00;;;;;;;17.75;11.63;;;;;;;11.25;100.00;100579.94;5052757;28;20477;-80
2022/04/05 13:00:28;;;;;;;11.85;6.80;;;;;;;11.09;100.00;100568.00;5053095;28;20037;-80
2022/04/05 13:03:06;;;;;;;12.88;8.43;;;;;;;11.14;100.00;100570.00;5052101;28;20041;-81
2022/04/05 13:08:28;;;;;;;23.98;12.30;;;;;;;10.94;100.00;100559.53;5052132;28;20055;-81
2022/04/05 13:14:16;;;;;;;12.50;8.07;;;;;;;10.79;100.00;100551.88;5053075;28;20516;-81
2022/04/05 13:16:43;;;;;;;10.82;7.45;;;;;;;10.82;100.00;100551.44;5052956;28;20366;-80
2022/04/05 13:19:13;;;;;;;11.23;6.97;;;;;;;10.96;100.00;100556.63;5051620;28;20052;-81
2022/04/05 13:21:47;;;;;;;19.08;9.48;;;;;;;10.97;100.00;100558.25;5052248;28;20033;-81
2022/04/05 13:24:15;;;;;;;29.58;15.23;;;;;;;11.01;100.00;100557.63;5052612;28;20044;-82
2022/04/05 13:26:49;;;;;;;111.20;44.22;;;;;;;10.88;100.00;100546.22;5033980;28;20538;-81
2022/04/05 13:29:17;;;;;;;62.10;25.77;;;;;;;10.89;100.00;100562.06;5052573;28;20132;-81
2022/04/05 13:31:51;;;;;;;16.38;8.73;;;;;;;10.88;100.00;100549.72;5037678;28;20037;-81
2022/04/05 13:34:28;;;;;;;46.70;28.77;;;;;;;10.94;100.00;100550.69;5034446;28;20025;-80
2022/04/05 13:36:54;;;;;;;9.60;6.65;;;;;;;11.30;100.00;100548.00;5051453;28;20152;-82
2022/04/05 13:39:24;;;;;;;8.93;6.47;;;;;;;11.43;100.00;100555.03;5052322;28;20483;-81
2022/04/05 13:41:52;;;;;;;9.15;7.22;;;;;;;11.33;100.00;100552.91;5051395;28;20079;-80
2022/04/05 13:47:40;;;;;;;7.72;5.63;;;;;;;11.20;100.00;100552.22;5052655;28;20052;-81
2022/04/05 13:50:06;;;;;;;10.02;6.50;;;;;;;11.09;100.00;100551.94;5034130;28;20047;-80
2022/04/05 13:52:31;;;;;;;9.40;7.78;;;;;;;11.31;100.00;100554.97;5051938;28;20470;-82
2022/04/05 13:54:56;;;;;;;8.73;6.07;;;;;;;11.40;100.00;100558.97;5051200;28;20072;-83
2022/04/05 13:57:22;;;;;;;9.15;5.57;;;;;;;11.31;100.00;100538.09;5034177;28;20311;-82
2022/04/05 13:59:47;;;;;;;11.05;6.22;;;;;;;11.32;100.00;100550.44;5033905;28;20041;-84
2022/04/05 14:05:34;;;;;;;8.10;5.47;;;;;;;11.08;100.00;100544.16;5052511;28;20040;-78
2022/04/05 14:11:21;;;;;;;9.95;6.45;;;;;;;10.93;100.00;100562.44;5052774;28;20067;-82
2022/04/05 14:13:48;;;;;;;7.32;5.63;;;;;;;10.79;100.00;100556.41;5052463;28;20025;-81
2022/04/05 14:16:14;;;;;;;9.05;6.38;;;;;;;10.58;100.00;100546.97;5051413;28;20135;-83
2022/04/05 14:22:01;;;;;;;12.77;7.80;;;;;;;10.51;100.00;100556.91;5052260;28;20051;-80
2022/04/05 14:24:27;;;;;;;13.07;8.55;;;;;;;10.38;100.00;100547.13;5033987;28;20028;-79
2022/04/05 14:30:14;;;;;;;28.17;15.90;;;;;;;10.48;100.00;100544.00;5051845;28;20048;-80
2022/04/05 14:36:01;;;;;;;59.30;28.38;;;;;;;10.64;100.00;100546.06;5052415;28;20179;-79
2022/04/05 14:41:49;;;;;;;138.52;59.20;;;;;;;11.22;100.00;100534.91;5051794;28;20052;-78
2022/04/05 14:47:36;;;;;;;18.80;12.73;;;;;;;11.80;100.00;100531.63;5051799;28;20124;-76
2022/04/05 14:53:26;;;;;;;12.70;8.55;;;;;;;11.86;100.00;100524.56;5051536;28;20141;-76
2022/04/05 14:59:13;;;;;;;21.38;13.02;;;;;;;12.01;100.00;100509.66;5051298;28;20036;-78
2022/04/05 15:05:02;;;;;;;70.45;29.80;;;;;;;12.15;100.00;100506.78;5051816;28;20039;-79
2022/04/05 15:10:49;;;;;;;47.08;22.17;;;;;;;12.16;100.00;100509.22;5051627;28;20527;-80
2022/04/05 15:16:39;;;;;;;19.17;11.10;;;;;;;12.05;100.00;100507.34;5051494;28;20275;-79
2022/04/05 15:22:28;;;;;;;12.60;8.32;;;;;;;11.97;100.00;100502.31;5050962;28;20090;-79
2022/04/05 15:28:15;;;;;;;9.45;6.85;;;;;;;11.98;100.00;100504.78;5051176;28;20040;-80
2022/04/05 15:30:40;;;;;;;11.60;7.65;;;;;;;11.83;100.00;100503.56;5050971;28;20104;-79
2022/04/05 15:33:06;;;;;;;10.60;6.95;;;;;;;11.62;100.00;100489.66;5031544;28;20041;-78
2022/04/05 15:38:55;;;;;;;9.82;6.82;;;;;;;11.53;100.00;100495.56;5050687;28;20434;-78